sensor_id;sensor_type;location;lat;lon;timestamp;temperature;humidity
11991;DHT22;6055;52.522;13.446;2022-11-04T00:01:38;9.20;99.90
11991;DHT22;6055;52.522;13.446;2022-11-04T00:04:04;9.10;99.90
11991;DHT22;6055;52.522;13.446;2022-11-04T00:06:29;9.10;99.90
11991;DHT22;6055;52.522;13.446;2022-11-04T00:08:56;9.10;99.90
11991;DHT22;6055;52.522;13.446;2022-11-04T00:11:23;9.20;99.90
11991;DHT22;6055;52.522;13.446;2022-11-04T00:14:08;9.20;99.90
11991;DHT22;6055;52.522;13.446;2022-11-04T00:16:34;9.20;99.90
11991;DHT22;6055;52.522;13.446;2022-11-04T00:19:18;9.20;99.90
11991;DHT22;6055;52.522;13.446;2022-11-04T00:21:44;9.20;99.90
11991;DHT22;6055;52.522;13.446;2022-11-04T00:24:28;9.20;99.90
11991;DHT22;6055;52.522;13.446;2022-11-04T00:27:14;9.20;99.90
11991;DHT22;6055;52.522;13.446;2022-11-04T00:29:59;9.10;99.90
11991;DHT22;6055;52.522;13.446;2022-11-04T00:32:25;9.10;99.90
11991;DHT22;6055;52.522;13.446;2022-11-04T00:35:10;9.20;99.90
11991;DHT22;6055;52.522;13.446;2022-11-04T00:37:37;9.10;99.90
11991;DHT22;6055;52.522;13.446;2022-11-04T00:40:03;9.20;99.90
11991;DHT22;6055;52.522;13.446;2022-11-04T00:42:29;9.10;99.90
11991;DHT22;6055;52.522;13.446;2022-11-04T00:44:55;9.10;99.90
11991;DHT22;6055;52.522;13.446;2022-11-04T00:47:20;9.10;99.90
11991;DHT22;6055;52.522;13.446;2022-11-04T00:49:45;9.10;99.90
11991;DHT22;6055;52.522;13.446;2022-11-04T00:52:11;9.10;99.90
11991;DHT22;6055;52.522;13.446;2022-11-04T00:54:36;9.10;99.90
11991;DHT22;6055;52.522;13.446;2022-11-04T00:57:02;9.10;99.90
11991;DHT22;6055;52.522;13.446;2022-11-04T00:59:27;9.10;99.90
11991;DHT22;6055;52.522;13.446;2022-11-04T01:01:54;9.00;99.90
11991;DHT22;6055;52.522;13.446;2022-11-04T01:04:19;9.00;99.90
11991;DHT22;6055;52.522;13.446;2022-11-04T01:06:45;9.00;99.90
11991;DHT22;6055;52.522;13.446;2022-11-04T01:09:11;9.00;99.90
11991;DHT22;6055;52.522;13.446;2022-11-04T01:11:37;9.00;99.90
11991;DHT22;6055;52.522;13.446;2022-11-04T01:14:03;8.90;99.90
11991;DHT22;6055;52.522;13.446;2022-11-04T01:16:29;8.90;99.90
11991;DHT22;6055;52.522;13.446;2022-11-04T01:18:55;8.90;99.90
11991;DHT22;6055;52.522;13.446;2022-11-04T01:21:21;8.90;99.90
11991;DHT22;6055;52.522;13.446;2022-11-04T01:23:46;8.90;99.90
11991;DHT22;6055;52.522;13.446;2022-11-04T01:26:17;8.90;99.90
11991;DHT22;6055;52.522;13.446;2022-11-04T01:28:44;8.90;99.90
11991;DHT22;6055;52.522;13.446;2022-11-04T01:31:11;9.00;99.90
11991;DHT22;6055;52.522;13.446;2022-11-04T01:33:38;9.00;99.90
11991;DHT22;6055;52.522;13.446;2022-11-04T01:36:05;9.00;99.90
11991;DHT22;6055;52.522;13.446;2022-11-04T01:38:31;9.00;99.90
11991;DHT22;6055;52.522;13.446;2022-11-04T01:40:57;9.00;99.90
11991;DHT22;6055;52.522;13.446;2022-11-04T01:46:20;9.00;99.90
11991;DHT22;6055;52.522;13.446;2022-11-04T01:48:46;9.00;99.90
11991;DHT22;6055;52.522;13.446;2022-11-04T01:51:12;9.00;99.90
11991;DHT22;6055;52.522;13.446;2022-11-04T01:53:40;9.00;99.90
11991;DHT22;6055;52.522;13.446;2022-11-04T01:56:09;9.00;99.90
11991;DHT22;6055;52.522;13.446;2022-11-04T01:58:41;9.00;99.90
11991;DHT22;6055;52.522;13.446;2022-11-04T02:01:10;9.10;99.90
11991;DHT22;6055;52.522;13.446;2022-11-04T02:03:52;9.10;99.90
11991;DHT22;6055;52.522;13.446;2022-11-04T02:06:20;9.10;99.90
11991;DHT22;6055;52.522;13.446;2022-11-04T02:08:47;9.00;99.90
11991;DHT22;6055;52.522;13.446;2022-11-04T02:11:12;9.00;99.90
11991;DHT22;6055;52.522;13.446;2022-11-04T02:13:58;9.00;99.90
11991;DHT22;6055;52.522;13.446;2022-11-04T02:16:41;9.00;99.90
11991;DHT22;6055;52.522;13.446;2022-11-04T02:28:07;9.10;99.90
11991;DHT22;6055;52.522;13.446;2022-11-04T02:30:45;9.00;99.90
11991;DHT22;6055;52.522;13.446;2022-11-04T02:33:35;9.00;99.90
11991;DHT22;6055;52.522;13.446;2022-11-04T02:36:23;9.00;99.90
11991;DHT22;6055;52.522;13.446;2022-11-04T02:39:06;9.00;99.90
11991;DHT22;6055;52.522;13.446;2022-11-04T02:41:45;9.00;99.90
11991;DHT22;6055;52.522;13.446;2022-11-04T02:44:34;9.00;99.90
11991;DHT22;6055;52.522;13.446;2022-11-04T02:47:05;9.00;99.90
11991;DHT22;6055;52.522;13.446;2022-11-04T02:49:56;8.90;99.90
11991;DHT22;6055;52.522;13.446;2022-11-04T02:52:33;8.90;99.90
11991;DHT22;6055;52.522;13.446;2022-11-04T02:55:12;8.90;99.90
11991;DHT22;6055;52.522;13.446;2022-11-04T02:57:41;8.90;99.90
11991;DHT22;6055;52.522;13.446;2022-11-04T03:00:09;8.80;99.90
11991;DHT22;6055;52.522;13.446;2022-11-04T03:02:44;8.90;99.90
11991;DHT22;6055;52.522;13.446;2022-11-04T03:05:13;8.90;99.90
11991;DHT22;6055;52.522;13.446;2022-11-04T03:07:41;8.80;99.90
11991;DHT22;6055;52.522;13.446;2022-11-04T03:10:14;8.80;99.90
11991;DHT22;6055;52.522;13.446;2022-11-04T03:12:59;8.80;99.90
11991;DHT22;6055;52.522;13.446;2022-11-04T03:15:29;8.80;99.90
11991;DHT22;6055;52.522;13.446;2022-11-04T03:20:38;8.80;99.90
11991;DHT22;6055;52.522;13.446;2022-11-04T03:23:05;8.80;99.90
11991;DHT22;6055;52.522;13.446;2022-11-04T03:25:35;8.80;99.90
11991;DHT22;6055;52.522;13.446;2022-11-04T03:28:10;8.80;99.90
11991;DHT22;6055;52.522;13.446;2022-11-04T03:30:44;8.80;99.90
11991;DHT22;6055;52.522;13.446;2022-11-04T03:33:21;8.80;99.90
11991;DHT22;6055;52.522;13.446;2022-11-04T03:35:49;8.80;99.90
11991;DHT22;6055;52.522;13.446;2022-11-04T03:38:15;8.90;99.90
11991;DHT22;6055;52.522;13.446;2022-11-04T03:40:41;8.90;99.90
11991;DHT22;6055;52.522;13.446;2022-11-04T03:43:10;8.90;99.90
11991;DHT22;6055;52.522;13.446;2022-11-04T03:45:38;8.90;99.90
11991;DHT22;6055;52.522;13.446;2022-11-04T03:48:04;8.90;99.90
11991;DHT22;6055;52.522;13.446;2022-11-04T03:50:31;9.00;99.90
11991;DHT22;6055;52.522;13.446;2022-11-04T03:52:58;8.90;99.90
11991;DHT22;6055;52.522;13.446;2022-11-04T03:55:38;9.00;99.90
11991;DHT22;6055;52.522;13.446;2022-11-04T03:58:24;9.00;99.90
11991;DHT22;6055;52.522;13.446;2022-11-04T04:01:21;8.90;99.90
11991;DHT22;6055;52.522;13.446;2022-11-04T04:03:59;9.00;99.90
11991;DHT22;6055;52.522;13.446;2022-11-04T04:06:32;9.00;99.90
11991;DHT22;6055;52.522;13.446;2022-11-04T04:14:31;9.00;99.90
11991;DHT22;6055;52.522;13.446;2022-11-04T04:17:13;9.00;99.90
11991;DHT22;6055;52.522;13.446;2022-11-04T04:19:43;9.10;99.90
11991;DHT22;6055;52.522;13.446;2022-11-04T04:22:15;9.00;99.90
11991;DHT22;6055;52.522;13.446;2022-11-04T04:24:44;9.10;99.90
11991;DHT22;6055;52.522;13.446;2022-11-04T04:27:30;9.10;99.90
11991;DHT22;6055;52.522;13.446;2022-11-04T04:30:12;9.10;99.90
11991;DHT22;6055;52.522;13.446;2022-11-04T04:32:49;9.10;99.90
11991;DHT22;6055;52.522;13.446;2022-11-04T04:35:16;9.10;99.90
11991;DHT22;6055;52.522;13.446;2022-11-04T04:38:03;9.10;99.90
11991;DHT22;6055;52.522;13.446;2022-11-04T04:40:56;9.10;99.90
11991;DHT22;6055;52.522;13.446;2022-11-04T04:43:43;9.10;99.90
11991;DHT22;6055;52.522;13.446;2022-11-04T04:46:28;9.10;99.90
11991;DHT22;6055;52.522;13.446;2022-11-04T04:49:03;9.10;99.90
11991;DHT22;6055;52.522;13.446;2022-11-04T04:51:29;9.10;99.90
11991;DHT22;6055;52.522;13.446;2022-11-04T04:53:55;9.20;99.90
11991;DHT22;6055;52.522;13.446;2022-11-04T04:56:20;9.10;99.90
11991;DHT22;6055;52.522;13.446;2022-11-04T04:58:45;9.20;99.90
11991;DHT22;6055;52.522;13.446;2022-11-04T05:01:11;9.20;99.90
11991;DHT22;6055;52.522;13.446;2022-11-04T05:03:36;9.20;99.90
11991;DHT22;6055;52.522;13.446;2022-11-04T05:06:02;9.20;99.90
11991;DHT22;6055;52.522;13.446;2022-11-04T05:08:30;9.20;99.90
11991;DHT22;6055;52.522;13.446;2022-11-04T05:10:55;9.20;99.90
11991;DHT22;6055;52.522;13.446;2022-11-04T05:13:22;9.20;99.90
11991;DHT22;6055;52.522;13.446;2022-11-04T05:15:51;9.20;99.90
11991;DHT22;6055;52.522;13.446;2022-11-04T05:18:17;9.20;99.90
11991;DHT22;6055;52.522;13.446;2022-11-04T05:20:43;9.20;99.90
11991;DHT22;6055;52.522;13.446;2022-11-04T05:23:08;9.20;99.90
11991;DHT22;6055;52.522;13.446;2022-11-04T05:25:37;9.20;99.90
11991;DHT22;6055;52.522;13.446;2022-11-04T05:28:04;9.30;99.90
11991;DHT22;6055;52.522;13.446;2022-11-04T05:30:30;9.20;99.90
11991;DHT22;6055;52.522;13.446;2022-11-04T05:32:55;9.20;99.90
11991;DHT22;6055;52.522;13.446;2022-11-04T05:35:21;9.30;99.90
11991;DHT22;6055;52.522;13.446;2022-11-04T05:37:47;9.30;99.90
11991;DHT22;6055;52.522;13.446;2022-11-04T05:40:12;9.30;99.90
11991;DHT22;6055;52.522;13.446;2022-11-04T05:42:38;9.30;99.90
11991;DHT22;6055;52.522;13.446;2022-11-04T05:45:04;9.30;99.90
11991;DHT22;6055;52.522;13.446;2022-11-04T05:47:29;9.30;99.90
11991;DHT22;6055;52.522;13.446;2022-11-04T05:49:55;9.30;99.90
11991;DHT22;6055;52.522;13.446;2022-11-04T05:52:20;9.30;99.90
11991;DHT22;6055;52.522;13.446;2022-11-04T05:54:46;9.30;99.90
11991;DHT22;6055;52.522;13.446;2022-11-04T05:57:12;9.30;99.90
11991;DHT22;6055;52.522;13.446;2022-11-04T05:59:37;9.30;99.90
11991;DHT22;6055;52.522;13.446;2022-11-04T06:02:03;9.30;99.90
11991;DHT22;6055;52.522;13.446;2022-11-04T06:04:28;9.30;99.90
11991;DHT22;6055;52.522;13.446;2022-11-04T06:06:54;9.30;99.90
11991;DHT22;6055;52.522;13.446;2022-11-04T06:09:19;9.30;99.90
11991;DHT22;6055;52.522;13.446;2022-11-04T06:11:45;9.30;99.90
11991;DHT22;6055;52.522;13.446;2022-11-04T06:14:11;9.30;99.90
11991;DHT22;6055;52.522;13.446;2022-11-04T06:16:37;9.30;99.90
11991;DHT22;6055;52.522;13.446;2022-11-04T06:19:02;9.30;99.90
11991;DHT22;6055;52.522;13.446;2022-11-04T06:21:30;9.30;99.90
11991;DHT22;6055;52.522;13.446;2022-11-04T06:23:58;9.30;99.90
11991;DHT22;6055;52.522;13.446;2022-11-04T06:26:25;9.30;99.90
11991;DHT22;6055;52.522;13.446;2022-11-04T06:28:51;9.30;99.90
11991;DHT22;6055;52.522;13.446;2022-11-04T06:31:17;9.40;99.90
11991;DHT22;6055;52.522;13.446;2022-11-04T06:33:43;9.40;99.90
11991;DHT22;6055;52.522;13.446;2022-11-04T06:36:12;9.40;99.90
11991;DHT22;6055;52.522;13.446;2022-11-04T06:38:38;9.40;99.90
11991;DHT22;6055;52.522;13.446;2022-11-04T06:41:11;9.50;99.90
11991;DHT22;6055;52.522;13.446;2022-11-04T06:43:36;9.50;99.90
11991;DHT22;6055;52.522;13.446;2022-11-04T06:46:03;9.50;99.90
11991;DHT22;6055;52.522;13.446;2022-11-04T06:48:29;9.50;99.90
11991;DHT22;6055;52.522;13.446;2022-11-04T06:50:59;9.50;99.90
11991;DHT22;6055;52.522;13.446;2022-11-04T06:53:26;9.50;99.90
11991;DHT22;6055;52.522;13.446;2022-11-04T06:55:52;9.50;99.90
11991;DHT22;6055;52.522;13.446;2022-11-04T06:58:18;9.60;99.90
11991;DHT22;6055;52.522;13.446;2022-11-04T07:00:50;9.50;99.90
11991;DHT22;6055;52.522;13.446;2022-11-04T07:03:15;9.60;99.90
11991;DHT22;6055;52.522;13.446;2022-11-04T07:05:41;9.60;99.90
11991;DHT22;6055;52.522;13.446;2022-11-04T07:08:06;9.70;99.90
11991;DHT22;6055;52.522;13.446;2022-11-04T07:10:32;9.70;99.90
11991;DHT22;6055;52.522;13.446;2022-11-04T07:12:58;9.80;99.90
11991;DHT22;6055;52.522;13.446;2022-11-04T07:15:23;9.80;99.90
11991;DHT22;6055;52.522;13.446;2022-11-04T07:17:49;9.80;99.90
11991;DHT22;6055;52.522;13.446;2022-11-04T07:20:14;9.80;99.90
11991;DHT22;6055;52.522;13.446;2022-11-04T07:22:40;9.80;99.90
11991;DHT22;6055;52.522;13.446;2022-11-04T07:25:05;9.80;99.90
11991;DHT22;6055;52.522;13.446;2022-11-04T07:27:31;9.90;99.90
11991;DHT22;6055;52.522;13.446;2022-11-04T07:29:56;9.90;99.90
11991;DHT22;6055;52.522;13.446;2022-11-04T07:32:22;10.00;99.90
11991;DHT22;6055;52.522;13.446;2022-11-04T07:34:47;10.00;99.90
11991;DHT22;6055;52.522;13.446;2022-11-04T07:37:13;10.00;99.90
11991;DHT22;6055;52.522;13.446;2022-11-04T07:39:38;10.00;99.90
11991;DHT22;6055;52.522;13.446;2022-11-04T07:42:06;10.10;99.90
11991;DHT22;6055;52.522;13.446;2022-11-04T07:44:32;10.10;99.90
11991;DHT22;6055;52.522;13.446;2022-11-04T07:46:58;10.10;99.90
11991;DHT22;6055;52.522;13.446;2022-11-04T07:49:23;10.20;99.90
11991;DHT22;6055;52.522;13.446;2022-11-04T07:51:50;10.20;99.90
11991;DHT22;6055;52.522;13.446;2022-11-04T07:54:15;10.30;99.90
11991;DHT22;6055;52.522;13.446;2022-11-04T07:56:41;10.30;99.90
11991;DHT22;6055;52.522;13.446;2022-11-04T07:59:06;10.40;99.90
11991;DHT22;6055;52.522;13.446;2022-11-04T08:01:32;10.50;99.90
11991;DHT22;6055;52.522;13.446;2022-11-04T08:03:58;10.60;99.90
11991;DHT22;6055;52.522;13.446;2022-11-04T08:06:23;10.60;99.90
11991;DHT22;6055;52.522;13.446;2022-11-04T08:08:49;10.70;99.90
11991;DHT22;6055;52.522;13.446;2022-11-04T08:11:20;10.70;99.90
11991;DHT22;6055;52.522;13.446;2022-11-04T08:13:47;10.80;99.90
11991;DHT22;6055;52.522;13.446;2022-11-04T08:16:18;10.80;99.90
11991;DHT22;6055;52.522;13.446;2022-11-04T08:18:45;10.80;99.90
11991;DHT22;6055;52.522;13.446;2022-11-04T08:21:11;10.80;99.90
11991;DHT22;6055;52.522;13.446;2022-11-04T08:23:37;10.90;99.90
11991;DHT22;6055;52.522;13.446;2022-11-04T08:26:07;10.80;99.90
11991;DHT22;6055;52.522;13.446;2022-11-04T08:28:34;10.80;99.90
11991;DHT22;6055;52.522;13.446;2022-11-04T08:31:05;10.80;99.90
11991;DHT22;6055;52.522;13.446;2022-11-04T08:33:32;10.90;99.90
11991;DHT22;6055;52.522;13.446;2022-11-04T08:36:00;10.90;99.90
11991;DHT22;6055;52.522;13.446;2022-11-04T08:38:26;10.90;99.90
11991;DHT22;6055;52.522;13.446;2022-11-04T08:40:56;10.90;99.90
11991;DHT22;6055;52.522;13.446;2022-11-04T08:43:22;10.90;99.90
11991;DHT22;6055;52.522;13.446;2022-11-04T08:45:48;10.90;99.90
11991;DHT22;6055;52.522;13.446;2022-11-04T08:48:13;10.90;99.90
11991;DHT22;6055;52.522;13.446;2022-11-04T08:50:41;10.90;99.90
11991;DHT22;6055;52.522;13.446;2022-11-04T08:53:06;11.00;99.90
11991;DHT22;6055;52.522;13.446;2022-11-04T08:55:32;11.00;99.90
11991;DHT22;6055;52.522;13.446;2022-11-04T08:57:59;11.10;99.90
11991;DHT22;6055;52.522;13.446;2022-11-04T09:00:25;11.10;99.90
11991;DHT22;6055;52.522;13.446;2022-11-04T09:02:51;11.10;99.90
11991;DHT22;6055;52.522;13.446;2022-11-04T09:05:17;11.20;99.90
11991;DHT22;6055;52.522;13.446;2022-11-04T09:07:43;11.20;99.90
11991;DHT22;6055;52.522;13.446;2022-11-04T09:10:10;11.20;99.90
11991;DHT22;6055;52.522;13.446;2022-11-04T09:12:36;11.20;99.90
11991;DHT22;6055;52.522;13.446;2022-11-04T09:15:02;11.20;99.90
11991;DHT22;6055;52.522;13.446;2022-11-04T09:17:29;11.20;99.90
11991;DHT22;6055;52.522;13.446;2022-11-04T09:19:55;11.30;99.90
11991;DHT22;6055;52.522;13.446;2022-11-04T09:22:21;11.30;99.90
11991;DHT22;6055;52.522;13.446;2022-11-04T09:24:46;11.30;99.90
11991;DHT22;6055;52.522;13.446;2022-11-04T09:27:12;11.30;99.90
11991;DHT22;6055;52.522;13.446;2022-11-04T09:29:39;11.30;99.90
11991;DHT22;6055;52.522;13.446;2022-11-04T09:32:06;11.40;99.90
11991;DHT22;6055;52.522;13.446;2022-11-04T09:34:31;11.40;99.90
11991;DHT22;6055;52.522;13.446;2022-11-04T09:36:57;11.40;99.90
11991;DHT22;6055;52.522;13.446;2022-11-04T09:39:23;11.40;99.90
11991;DHT22;6055;52.522;13.446;2022-11-04T09:42:12;11.40;99.90
11991;DHT22;6055;52.522;13.446;2022-11-04T09:45:00;11.40;99.90
11991;DHT22;6055;52.522;13.446;2022-11-04T09:47:29;11.40;99.90
11991;DHT22;6055;52.522;13.446;2022-11-04T09:49:58;11.50;99.90
11991;DHT22;6055;52.522;13.446;2022-11-04T09:52:27;11.60;99.90
11991;DHT22;6055;52.522;13.446;2022-11-04T09:55:06;11.60;99.90
11991;DHT22;6055;52.522;13.446;2022-11-04T09:57:37;11.60;99.90
11991;DHT22;6055;52.522;13.446;2022-11-04T10:00:03;11.60;99.90
11991;DHT22;6055;52.522;13.446;2022-11-04T10:05:26;11.70;99.90
11991;DHT22;6055;52.522;13.446;2022-11-04T10:08:25;11.70;99.90
11991;DHT22;6055;52.522;13.446;2022-11-04T10:16:44;11.50;99.90
11991;DHT22;6055;52.522;13.446;2022-11-04T10:24:57;11.50;99.90
11991;DHT22;6055;52.522;13.446;2022-11-04T10:27:28;11.60;99.90
11991;DHT22;6055;52.522;13.446;2022-11-04T10:30:05;11.50;99.90
11991;DHT22;6055;52.522;13.446;2022-11-04T10:32:59;11.50;99.90
11991;DHT22;6055;52.522;13.446;2022-11-04T10:35:39;11.50;99.90
11991;DHT22;6055;52.522;13.446;2022-11-04T10:40:57;11.60;99.90
11991;DHT22;6055;52.522;13.446;2022-11-04T10:43:34;11.60;99.90
11991;DHT22;6055;52.522;13.446;2022-11-04T10:51:20;11.60;99.90
11991;DHT22;6055;52.522;13.446;2022-11-04T10:53:56;11.50;99.90
11991;DHT22;6055;52.522;13.446;2022-11-04T10:56:49;11.50;99.90
11991;DHT22;6055;52.522;13.446;2022-11-04T11:02:03;11.40;99.90
11991;DHT22;6055;52.522;13.446;2022-11-04T11:04:31;11.40;99.90
11991;DHT22;6055;52.522;13.446;2022-11-04T11:06:59;11.40;99.90
11991;DHT22;6055;52.522;13.446;2022-11-04T11:09:28;11.40;99.90
11991;DHT22;6055;52.522;13.446;2022-11-04T11:16:54;11.40;99.90
11991;DHT22;6055;52.522;13.446;2022-11-04T11:19:23;11.40;99.90
11991;DHT22;6055;52.522;13.446;2022-11-04T11:21:54;11.40;99.90
11991;DHT22;6055;52.522;13.446;2022-11-04T11:24:25;11.40;99.90
11991;DHT22;6055;52.522;13.446;2022-11-04T11:26:57;11.40;99.90
11991;DHT22;6055;52.522;13.446;2022-11-04T11:29:27;11.50;99.90
11991;DHT22;6055;52.522;13.446;2022-11-04T11:31:55;11.40;99.90
11991;DHT22;6055;52.522;13.446;2022-11-04T11:34:29;11.40;99.90
11991;DHT22;6055;52.522;13.446;2022-11-04T11:36:56;11.40;99.90
11991;DHT22;6055;52.522;13.446;2022-11-04T11:39:25;11.30;99.90
11991;DHT22;6055;52.522;13.446;2022-11-04T11:41:57;11.30;99.90
11991;DHT22;6055;52.522;13.446;2022-11-04T11:44:24;11.30;99.90
11991;DHT22;6055;52.522;13.446;2022-11-04T11:46:56;11.30;99.90
11991;DHT22;6055;52.522;13.446;2022-11-04T11:49:26;11.20;99.90
11991;DHT22;6055;52.522;13.446;2022-11-04T11:51:54;11.30;99.90
11991;DHT22;6055;52.522;13.446;2022-11-04T11:54:34;11.30;99.90
11991;DHT22;6055;52.522;13.446;2022-11-04T11:57:07;11.30;99.90
11991;DHT22;6055;52.522;13.446;2022-11-04T11:59:48;11.20;99.90
11991;DHT22;6055;52.522;13.446;2022-11-04T12:02:27;11.20;99.90
11991;DHT22;6055;52.522;13.446;2022-11-04T12:04:55;11.20;99.90
11991;DHT22;6055;52.522;13.446;2022-11-04T12:07:48;11.20;99.90
11991;DHT22;6055;52.522;13.446;2022-11-04T12:10:37;11.20;99.90
11991;DHT22;6055;52.522;13.446;2022-11-04T12:13:24;11.20;99.90
11991;DHT22;6055;52.522;13.446;2022-11-04T12:18:55;11.20;99.90
11991;DHT22;6055;52.522;13.446;2022-11-04T12:21:25;11.20;99.90
11991;DHT22;6055;52.522;13.446;2022-11-04T12:24:09;11.10;99.90
11991;DHT22;6055;52.522;13.446;2022-11-04T12:34:59;11.00;99.90
11991;DHT22;6055;52.522;13.446;2022-11-04T12:37:39;11.00;99.90
11991;DHT22;6055;52.522;13.446;2022-11-04T12:44:06;11.00;99.90
11991;DHT22;6055;52.522;13.446;2022-11-04T12:46:08;11.00;99.90
11991;DHT22;6055;52.522;13.446;2022-11-04T12:54:54;11.00;99.90
11991;DHT22;6055;52.522;13.446;2022-11-04T12:57:48;11.00;99.90
11991;DHT22;6055;52.522;13.446;2022-11-04T13:00:20;11.00;99.90
11991;DHT22;6055;52.522;13.446;2022-11-04T13:02:59;11.00;99.90
11991;DHT22;6055;52.522;13.446;2022-11-04T13:11:25;11.00;99.90
11991;DHT22;6055;52.522;13.446;2022-11-04T13:16:36;11.00;99.90
11991;DHT22;6055;52.522;13.446;2022-11-04T13:19:04;11.00;99.90
11991;DHT22;6055;52.522;13.446;2022-11-04T13:21:35;11.00;99.90
11991;DHT22;6055;52.522;13.446;2022-11-04T13:24:20;11.00;99.90
11991;DHT22;6055;52.522;13.446;2022-11-04T13:26:47;11.00;99.90
11991;DHT22;6055;52.522;13.446;2022-11-04T13:29:15;11.00;99.90
11991;DHT22;6055;52.522;13.446;2022-11-04T13:37:36;11.00;99.90
11991;DHT22;6055;52.522;13.446;2022-11-04T13:40:15;11.00;99.90
11991;DHT22;6055;52.522;13.446;2022-11-04T13:43:15;11.00;99.90
11991;DHT22;6055;52.522;13.446;2022-11-04T13:46:48;10.90;99.90
11991;DHT22;6055;52.522;13.446;2022-11-04T13:49:01;10.90;99.90
11991;DHT22;6055;52.522;13.446;2022-11-04T13:51:35;10.90;99.90
11991;DHT22;6055;52.522;13.446;2022-11-04T13:54:02;10.90;99.90
11991;DHT22;6055;52.522;13.446;2022-11-04T13:59:15;10.80;99.90
11991;DHT22;6055;52.522;13.446;2022-11-04T14:01:43;10.90;99.90
11991;DHT22;6055;52.522;13.446;2022-11-04T14:06:53;10.80;99.90
11991;DHT22;6055;52.522;13.446;2022-11-04T14:14:47;10.90;99.90
11991;DHT22;6055;52.522;13.446;2022-11-04T14:22:58;10.90;99.90
11991;DHT22;6055;52.522;13.446;2022-11-04T14:25:30;10.90;99.90
11991;DHT22;6055;52.522;13.446;2022-11-04T14:28:17;11.00;99.90
11991;DHT22;6055;52.522;13.446;2022-11-04T14:30:53;11.00;99.90
11991;DHT22;6055;52.522;13.446;2022-11-04T14:35:52;11.00;99.90
11991;DHT22;6055;52.522;13.446;2022-11-04T14:38:28;10.90;99.90
11991;DHT22;6055;52.522;13.446;2022-11-04T14:43:50;11.00;99.90
11991;DHT22;6055;52.522;13.446;2022-11-04T14:46:19;10.90;99.90
11991;DHT22;6055;52.522;13.446;2022-11-04T14:48:49;10.90;99.90
11991;DHT22;6055;52.522;13.446;2022-11-04T14:51:30;10.90;99.90
11991;DHT22;6055;52.522;13.446;2022-11-04T14:54:20;10.80;99.90
11991;DHT22;6055;52.522;13.446;2022-11-04T14:56:49;10.80;99.90
11991;DHT22;6055;52.522;13.446;2022-11-04T14:59:25;10.80;99.90
11991;DHT22;6055;52.522;13.446;2022-11-04T15:01:52;10.80;99.90
11991;DHT22;6055;52.522;13.446;2022-11-04T15:04:28;10.80;99.90
11991;DHT22;6055;52.522;13.446;2022-11-04T15:07:00;10.80;99.90
11991;DHT22;6055;52.522;13.446;2022-11-04T15:09:28;10.70;99.90
11991;DHT22;6055;52.522;13.446;2022-11-04T15:12:11;10.80;99.90
11991;DHT22;6055;52.522;13.446;2022-11-04T15:14:56;10.70;99.90
11991;DHT22;6055;52.522;13.446;2022-11-04T15:17:25;10.70;99.90
11991;DHT22;6055;52.522;13.446;2022-11-04T15:19:54;10.70;99.90
11991;DHT22;6055;52.522;13.446;2022-11-04T15:22:20;10.70;99.90
11991;DHT22;6055;52.522;13.446;2022-11-04T15:24:46;10.70;99.90
11991;DHT22;6055;52.522;13.446;2022-11-04T15:27:16;10.70;99.90
11991;DHT22;6055;52.522;13.446;2022-11-04T15:29:57;10.70;99.90
11991;DHT22;6055;52.522;13.446;2022-11-04T15:32:23;10.70;99.90
11991;DHT22;6055;52.522;13.446;2022-11-04T15:34:49;10.70;99.90
11991;DHT22;6055;52.522;13.446;2022-11-04T15:37:15;10.70;99.90
11991;DHT22;6055;52.522;13.446;2022-11-04T15:39:46;10.70;99.90
11991;DHT22;6055;52.522;13.446;2022-11-04T15:42:17;10.70;99.90
11991;DHT22;6055;52.522;13.446;2022-11-04T15:45:33;10.70;99.90
11991;DHT22;6055;52.522;13.446;2022-11-04T15:48:26;10.70;99.90
11991;DHT22;6055;52.522;13.446;2022-11-04T15:53:25;10.70;99.90
11991;DHT22;6055;52.522;13.446;2022-11-04T15:55:51;10.70;99.90
11991;DHT22;6055;52.522;13.446;2022-11-04T15:58:17;10.70;99.90
11991;DHT22;6055;52.522;13.446;2022-11-04T16:00:51;10.60;99.90
11991;DHT22;6055;52.522;13.446;2022-11-04T16:03:18;10.60;99.90
11991;DHT22;6055;52.522;13.446;2022-11-04T16:05:59;10.60;99.90
11991;DHT22;6055;52.522;13.446;2022-11-04T16:08:27;10.60;99.90
11991;DHT22;6055;52.522;13.446;2022-11-04T16:11:15;10.60;99.90
11991;DHT22;6055;52.522;13.446;2022-11-04T16:13:42;10.60;99.90
11991;DHT22;6055;52.522;13.446;2022-11-04T16:16:19;10.60;99.90
11991;DHT22;6055;52.522;13.446;2022-11-04T16:18:55;10.60;99.90
11991;DHT22;6055;52.522;13.446;2022-11-04T16:21:35;10.60;99.90
11991;DHT22;6055;52.522;13.446;2022-11-04T16:24:14;10.60;99.90
11991;DHT22;6055;52.522;13.446;2022-11-04T16:26:42;10.60;99.90
11991;DHT22;6055;52.522;13.446;2022-11-04T16:29:19;10.60;99.90
11991;DHT22;6055;52.522;13.446;2022-11-04T16:32:16;10.60;99.90
11991;DHT22;6055;52.522;13.446;2022-11-04T16:34:43;10.60;99.90
11991;DHT22;6055;52.522;13.446;2022-11-04T16:37:10;10.60;99.90
11991;DHT22;6055;52.522;13.446;2022-11-04T16:39:36;10.60;99.90
11991;DHT22;6055;52.522;13.446;2022-11-04T16:42:03;10.60;99.90
11991;DHT22;6055;52.522;13.446;2022-11-04T16:44:29;10.60;99.90
11991;DHT22;6055;52.522;13.446;2022-11-04T16:46:55;10.50;99.90
11991;DHT22;6055;52.522;13.446;2022-11-04T16:49:21;10.60;99.90
11991;DHT22;6055;52.522;13.446;2022-11-04T16:51:52;10.60;99.90
11991;DHT22;6055;52.522;13.446;2022-11-04T16:54:17;10.50;99.90
11991;DHT22;6055;52.522;13.446;2022-11-04T16:56:43;10.50;99.90
11991;DHT22;6055;52.522;13.446;2022-11-04T16:59:10;10.60;99.90
11991;DHT22;6055;52.522;13.446;2022-11-04T17:01:37;10.60;99.90
11991;DHT22;6055;52.522;13.446;2022-11-04T17:04:04;10.50;99.90
11991;DHT22;6055;52.522;13.446;2022-11-04T17:06:31;10.50;99.90
11991;DHT22;6055;52.522;13.446;2022-11-04T17:08:57;10.50;99.90
11991;DHT22;6055;52.522;13.446;2022-11-04T17:11:22;10.60;99.90
11991;DHT22;6055;52.522;13.446;2022-11-04T17:13:48;10.60;99.90
11991;DHT22;6055;52.522;13.446;2022-11-04T17:16:13;10.60;99.90
11991;DHT22;6055;52.522;13.446;2022-11-04T17:18:39;10.60;99.90
11991;DHT22;6055;52.522;13.446;2022-11-04T17:21:06;10.60;99.90
11991;DHT22;6055;52.522;13.446;2022-11-04T17:23:32;10.50;99.90
11991;DHT22;6055;52.522;13.446;2022-11-04T17:25:58;10.60;99.90
11991;DHT22;6055;52.522;13.446;2022-11-04T17:28:23;10.60;99.90
11991;DHT22;6055;52.522;13.446;2022-11-04T17:30:49;10.60;99.90
11991;DHT22;6055;52.522;13.446;2022-11-04T17:33:16;10.60;99.90
11991;DHT22;6055;52.522;13.446;2022-11-04T17:35:47;10.50;99.90
11991;DHT22;6055;52.522;13.446;2022-11-04T17:38:15;10.50;99.90
11991;DHT22;6055;52.522;13.446;2022-11-04T17:40:41;10.40;99.90
11991;DHT22;6055;52.522;13.446;2022-11-04T17:43:25;10.50;99.90
11991;DHT22;6055;52.522;13.446;2022-11-04T17:46:10;10.50;99.90
11991;DHT22;6055;52.522;13.446;2022-11-04T17:48:55;10.50;99.90
11991;DHT22;6055;52.522;13.446;2022-11-04T17:51:21;10.50;99.90